createdAt,value
2022-09-05T00:00:01.462Z,18
2022-09-05T00:01:01.038Z,17.9
2022-09-05T00:02:01.615Z,17.9
2022-09-05T00:03:01.311Z,17.8
2022-09-05T00:04:03.325Z,17.9
2022-09-05T00:05:01.325Z,17.8
2022-09-05T00:06:03.425Z,17.9
2022-09-05T00:07:01.097Z,17.8
2022-09-05T00:08:01.670Z,17.8
2022-09-05T00:09:01.241Z,17.9
2022-09-05T00:10:01.828Z,17.9
2022-09-05T00:11:18.070Z,17.9
2022-09-05T00:12:01.916Z,18
2022-09-05T00:13:07.287Z,18
2022-09-05T00:14:01.036Z,18.1
2022-09-05T00:15:15.595Z,18
2022-09-05T00:16:01.207Z,18.1
2022-09-05T00:17:01.811Z,18.1
2022-09-05T00:19:16.208Z,18.1
2022-09-05T00:19:51.684Z,18
2022-09-05T00:21:40.180Z,18
2022-09-05T00:24:17.930Z,18
2022-09-05T00:24:23.563Z,17.9
2022-09-05T00:24:24.592Z,17.9
2022-09-05T00:24:24.598Z,17.9
2022-09-05T00:25:21.122Z,17.9
2022-09-05T00:26:01.744Z,17.9
2022-09-05T00:27:01.831Z,17.9
2022-09-05T00:28:02.066Z,17.9
2022-09-05T00:29:00.963Z,17.9
2022-09-05T00:31:08.310Z,17.9
2022-09-05T00:31:08.326Z,17.9
2022-09-05T00:32:01.674Z,18
2022-09-05T00:33:01.303Z,17.9
2022-09-05T00:34:01.857Z,17.9
2022-09-05T00:35:01.433Z,17.9
2022-09-05T00:36:01.286Z,17.8
2022-09-05T00:37:01.592Z,17.8
2022-09-05T00:38:01.180Z,17.8
2022-09-05T00:39:01.757Z,17.8
2022-09-05T00:40:17.392Z,17.7
2022-09-05T00:41:01.872Z,17.7
2022-09-05T00:42:01.445Z,17.7
2022-09-05T00:43:01.035Z,17.7
2022-09-05T00:44:01.621Z,17.6
2022-09-05T00:45:01.196Z,17.5
2022-09-05T00:46:01.892Z,17.5
2022-09-05T00:47:01.431Z,17.4
2022-09-05T00:48:01.009Z,17.4
2022-09-05T00:49:01.583Z,17.5
2022-09-05T00:50:01.155Z,17.5
2022-09-05T00:51:01.744Z,17.5
2022-09-05T00:52:01.319Z,17.6
2022-09-05T00:53:07.168Z,17.6
2022-09-05T00:54:01.429Z,17.6
2022-09-05T00:55:01.006Z,17.7
2022-09-05T00:56:01.594Z,17.7
2022-09-05T00:57:01.164Z,17.7
2022-09-05T00:58:01.751Z,17.7
2022-09-05T00:59:01.325Z,17.8
2022-09-05T01:00:01.898Z,17.7
2022-09-05T01:01:01.490Z,17.7
2022-09-05T01:02:01.126Z,17.7
2022-09-05T01:03:01.752Z,17.6
2022-09-05T01:04:01.299Z,17.5
2022-09-05T01:05:01.834Z,17.5
2022-09-05T01:06:01.431Z,17.5
2022-09-05T01:07:01.007Z,17.5
2022-09-05T01:08:01.578Z,17.5
2022-09-05T01:09:07.840Z,17.5
2022-09-05T01:10:01.687Z,17.4
2022-09-05T01:11:01.283Z,17.4
2022-09-05T01:12:01.837Z,17.3
2022-09-05T01:13:01.413Z,17.3
2022-09-05T01:14:00.989Z,17.3
2022-09-05T01:15:01.653Z,17.3
2022-09-05T01:16:01.320Z,17.3
2022-09-05T01:17:01.806Z,17.3
2022-09-05T01:18:01.379Z,17.3
2022-09-05T01:19:00.955Z,17.3
2022-09-05T01:20:02.376Z,17.3
2022-09-05T01:21:01.086Z,17.2
2022-09-05T01:22:01.660Z,17.3
2022-09-05T01:23:01.489Z,17.3
2022-09-05T01:24:01.777Z,17.3
2022-09-05T01:25:01.351Z,17.3
2022-09-05T01:26:01.945Z,17.3
2022-09-05T01:27:01.563Z,17.3
2022-09-05T01:28:30.930Z,17.3
2022-09-05T01:29:14.904Z,17.2
2022-09-05T01:30:01.209Z,17.2
2022-09-05T01:31:01.857Z,17.2
2022-09-05T01:32:01.445Z,17.1
2022-09-05T01:33:05.798Z,17.1
2022-09-05T01:34:01.555Z,17
2022-09-05T01:35:01.128Z,17.1
2022-09-05T01:36:03.942Z,17.2
2022-09-05T01:37:01.253Z,17.2
2022-09-05T01:38:01.828Z,17.2
2022-09-05T01:39:51.688Z,17.2
2022-09-05T01:40:10.913Z,17.2
2022-09-05T01:41:17.702Z,17.1
2022-09-05T01:42:01.034Z,17.1
2022-09-05T01:43:01.610Z,17.1
2022-09-05T01:44:01.183Z,17.2
2022-09-05T01:45:01.759Z,17.1
2022-09-05T01:46:01.428Z,17.1
2022-09-05T01:47:01.923Z,17.1
2022-09-05T01:48:01.458Z,17.1
2022-09-05T01:49:01.147Z,17
2022-09-05T01:50:01.288Z,17.1
2022-09-05T01:51:01.410Z,17
2022-09-05T01:52:01.587Z,17
2022-09-05T01:53:02.621Z,17
2022-09-05T01:54:01.802Z,16.9
2022-09-05T01:55:01.468Z,16.9
2022-09-05T01:56:02.571Z,17
2022-09-05T01:57:01.614Z,16.9
2022-09-05T01:58:01.192Z,16.9
2022-09-05T01:59:01.764Z,16.8
2022-09-05T02:00:01.337Z,16.8
2022-09-05T02:01:24.987Z,16.8
2022-09-05T02:02:01.493Z,16.7
2022-09-05T02:03:01.192Z,16.8
2022-09-05T02:04:04.512Z,16.7
2022-09-05T02:05:01.260Z,16.8
2022-09-05T02:06:01.832Z,16.8
2022-09-05T02:07:15.468Z,16.8
2022-09-05T02:08:00.968Z,16.8
2022-09-05T02:09:01.548Z,16.8
2022-09-05T02:10:06.924Z,16.7
2022-09-05T02:11:01.658Z,16.7
2022-09-05T02:12:01.248Z,16.7
2022-09-05T02:13:02.733Z,16.7
2022-09-05T02:14:01.858Z,16.7
2022-09-05T02:15:01.038Z,16.8
2022-09-05T02:16:01.685Z,16.7
2022-09-05T02:17:01.260Z,16.7
2022-09-05T02:18:01.854Z,16.8
2022-09-05T02:19:01.530Z,16.8
2022-09-05T02:20:01.001Z,16.7
2022-09-05T02:21:01.582Z,16.7
2022-09-05T02:22:01.160Z,16.7
2022-09-05T02:23:01.754Z,16.7
2022-09-05T02:24:01.327Z,16.7
2022-09-05T02:25:18.114Z,16.7
2022-09-05T02:26:03.516Z,16.7
2022-09-05T02:27:00.974Z,16.7
2022-09-05T02:28:05.261Z,16.7
2022-09-05T02:29:01.121Z,16.7
2022-09-05T02:30:01.709Z,16.7
2022-09-05T02:31:20.324Z,16.7
2022-09-05T02:32:01.823Z,16.7
2022-09-05T02:33:01.400Z,16.7
2022-09-05T02:34:02.163Z,16.7
2022-09-05T02:35:01.076Z,16.7
2022-09-05T02:36:01.652Z,16.7
2022-09-05T02:37:01.783Z,16.7
2022-09-05T02:38:18.350Z,16.7
2022-09-05T02:40:22.046Z,16.7
2022-09-05T02:41:29.074Z,16.8
2022-09-05T02:45:04.721Z,16.8
2022-09-05T02:45:05.223Z,16.8
2022-09-05T02:45:15.466Z,16.7
2022-09-05T02:45:23.350Z,16.8
2022-09-05T02:45:23.607Z,16.8
2022-09-05T02:46:01.889Z,16.9
2022-09-05T02:47:01.649Z,16.9
2022-09-05T02:48:04.263Z,16.9
2022-09-05T02:49:01.808Z,17
2022-09-05T02:50:55.851Z,17
2022-09-05T02:52:14.306Z,17
2022-09-05T02:54:14.285Z,17
2022-09-05T02:56:37.610Z,17
2022-09-05T02:57:31.440Z,17
2022-09-05T02:57:31.529Z,16.9
2022-09-05T02:57:31.788Z,17
2022-09-05T02:57:32.252Z,17
2022-09-05T02:58:05.176Z,17
2022-09-05T02:59:10.913Z,17.1
2022-09-05T03:00:01.743Z,17.1
2022-09-05T03:01:01.188Z,17.1
2022-09-05T03:02:02.059Z,17.1
2022-09-05T03:03:01.297Z,17.1
2022-09-05T03:04:01.938Z,17.2
2022-09-05T03:05:04.448Z,17.2
2022-09-05T03:06:01.048Z,17.2
2022-09-05T03:07:01.621Z,17.2
2022-09-05T03:08:01.195Z,17.2
2022-09-05T03:09:10.004Z,17.2
2022-09-05T03:10:01.323Z,17.2
2022-09-05T03:11:01.897Z,17.2
2022-09-05T03:12:03.012Z,17.2
2022-09-05T03:13:01.010Z,17.2
2022-09-05T03:14:01.612Z,17.1
2022-09-05T03:15:01.187Z,17.1
2022-09-05T03:16:04.610Z,17.1
2022-09-05T03:17:01.393Z,17.1
2022-09-05T03:18:20.384Z,17.1
2022-09-05T03:19:01.545Z,17.1
2022-09-05T03:20:01.120Z,17.1
2022-09-05T03:21:09.354Z,17.1
2022-09-05T03:22:01.259Z,17.2
2022-09-05T03:23:01.831Z,17.1
2022-09-05T03:24:01.406Z,17
2022-09-05T03:25:00.986Z,17
2022-09-05T03:26:01.575Z,17.1
2022-09-05T03:27:01.147Z,17
2022-09-05T03:28:01.721Z,17.1
2022-09-05T03:29:01.545Z,17.1
2022-09-05T03:30:01.871Z,17
2022-09-05T03:31:01.530Z,17
2022-09-05T03:32:01.044Z,16.9
2022-09-05T03:33:01.597Z,16.9
2022-09-05T03:34:01.168Z,16.9
2022-09-05T03:35:05.127Z,17
2022-09-05T03:36:01.275Z,16.9
2022-09-05T03:37:01.870Z,16.9
2022-09-05T03:38:01.446Z,16.9
2022-09-05T03:39:01.020Z,16.9
2022-09-05T03:40:15.529Z,16.9
2022-09-05T03:41:01.130Z,17
2022-09-05T03:42:01.719Z,16.9
2022-09-05T03:43:01.364Z,16.9
2022-09-05T03:44:01.935Z,16.9
2022-09-05T03:45:01.510Z,16.9
2022-09-05T03:46:01.126Z,16.8
2022-09-05T03:47:01.689Z,16.9
2022-09-05T03:48:02.250Z,16.8
2022-09-05T03:49:02.833Z,16.8
2022-09-05T03:51:03.003Z,16.8
2022-09-05T03:53:24.190Z,16.8
2022-09-05T03:53:45.371Z,16.8
2022-09-05T03:57:09.826Z,16.7
2022-09-05T03:57:10.073Z,16.8
2022-09-05T03:57:21.423Z,16.7
2022-09-05T03:57:21.470Z,16.7
2022-09-05T03:57:21.814Z,16.7
2022-09-05T03:58:08.198Z,16.7
2022-09-05T03:59:01.430Z,16.7
2022-09-05T04:00:01.170Z,16.7
2022-09-05T04:01:10.885Z,16.6
2022-09-05T04:02:46.464Z,16.7
2022-09-05T04:03:47.182Z,16.7
2022-09-05T04:06:28.748Z,16.8
2022-09-05T04:08:11.731Z,16.8
2022-09-05T04:08:12.841Z,16.8
2022-09-05T04:08:13.032Z,16.8
2022-09-05T04:08:20.071Z,16.7
2022-09-05T04:09:01.164Z,16.8
2022-09-05T04:10:01.925Z,16.7
2022-09-05T04:11:01.477Z,16.7
2022-09-05T04:12:01.004Z,16.7
2022-09-05T04:13:01.540Z,16.7
2022-09-05T04:14:01.112Z,16.7
2022-09-05T04:15:01.703Z,16.6
2022-09-05T04:16:01.277Z,16.6
2022-09-05T04:17:01.933Z,16.6
2022-09-05T04:18:03.617Z,16.5
2022-09-05T04:19:01.054Z,16.5
2022-09-05T04:20:01.624Z,16.5
2022-09-05T04:21:01.197Z,16.5
2022-09-05T04:22:01.768Z,16.5
2022-09-05T04:23:01.357Z,16.5
2022-09-05T04:24:01.917Z,16.5
2022-09-05T04:25:01.489Z,16.4
2022-09-05T04:26:10.995Z,16.3
2022-09-05T04:27:01.595Z,16.3
2022-09-05T04:28:01.190Z,16.3
2022-09-05T04:29:01.753Z,16.3
2022-09-05T04:30:01.329Z,16.4
2022-09-05T04:31:01.117Z,16.4
2022-09-05T04:32:06.595Z,16.4
2022-09-05T04:33:01.041Z,16.4
2022-09-05T04:34:01.632Z,16.4
2022-09-05T04:35:01.205Z,16.4
2022-09-05T04:36:01.778Z,16.4
2022-09-05T04:37:01.315Z,16.4
2022-09-05T04:38:01.890Z,16.2
2022-09-05T04:39:01.483Z,16.3
2022-09-05T04:40:01.153Z,16.2
2022-09-05T04:41:01.638Z,16.1
2022-09-05T04:42:01.213Z,16.1
2022-09-05T04:43:01.789Z,16.1
2022-09-05T04:44:01.386Z,16
2022-09-05T04:45:01.922Z,15.9
2022-09-05T04:46:01.534Z,16
2022-09-05T04:47:01.132Z,16.1
2022-09-05T04:48:02.923Z,16.2
2022-09-05T04:49:01.256Z,16.3
2022-09-05T04:50:01.597Z,16.5
2022-09-05T04:51:01.174Z,16.6
2022-09-05T04:52:01.749Z,16.7
2022-09-05T04:53:01.409Z,16.8
2022-09-05T04:54:02.003Z,16.8
2022-09-05T04:55:01.579Z,16.9
2022-09-05T04:56:01.152Z,16.9
2022-09-05T04:57:01.725Z,16.9
2022-09-05T04:58:01.261Z,16.8
2022-09-05T04:59:44.794Z,16.8
2022-09-05T05:02:12.800Z,16.8
2022-09-05T05:02:58.351Z,16.8
2022-09-05T05:06:06.273Z,16.5
2022-09-05T05:06:07.030Z,16.8
2022-09-05T05:06:07.092Z,16.7
2022-09-05T05:06:07.486Z,16.7
2022-09-05T05:06:28.997Z,16.4
2022-09-05T05:07:06.154Z,16.4
2022-09-05T05:08:01.845Z,16.4
2022-09-05T05:09:01.501Z,16.5
2022-09-05T05:10:52.706Z,16.6
2022-09-05T05:13:56.960Z,16.7
2022-09-05T05:14:12.418Z,16.6
2022-09-05T05:17:25.393Z,16.8
2022-09-05T05:17:38.475Z,16.7
2022-09-05T05:17:54.654Z,16.8
2022-09-05T05:18:04.646Z,16.7
2022-09-05T05:18:04.875Z,16.8
2022-09-05T05:18:39.133Z,16.8
2022-09-05T05:19:07.210Z,16.9
2022-09-05T05:20:39.617Z,16.9
2022-09-05T05:21:01.094Z,16.9
2022-09-05T05:22:01.668Z,16.8
2022-09-05T05:23:07.706Z,16.9
2022-09-05T05:24:01.781Z,17
2022-09-05T05:25:01.355Z,16.9
2022-09-05T05:26:01.947Z,16.9
2022-09-05T05:27:01.521Z,17
2022-09-05T05:28:01.095Z,17
2022-09-05T05:29:01.631Z,17.1
2022-09-05T05:30:01.210Z,17.1
2022-09-05T05:31:02.119Z,17.1
2022-09-05T05:32:01.544Z,17.1
2022-09-05T05:33:01.029Z,17.1
2022-09-05T05:34:02.198Z,17
2022-09-05T05:35:01.139Z,17
2022-09-05T05:36:01.730Z,17
2022-09-05T05:37:01.305Z,17
2022-09-05T05:38:01.879Z,17.1
2022-09-05T05:39:01.453Z,17.2
2022-09-05T05:40:01.070Z,17.1
2022-09-05T05:41:01.626Z,17.1
2022-09-05T05:42:03.229Z,17.1
2022-09-05T05:43:01.735Z,17.3
2022-09-05T05:44:01.333Z,17.3
2022-09-05T05:45:01.892Z,17.3
2022-09-05T05:46:01.493Z,17.4
2022-09-05T05:47:01.050Z,17.5
2022-09-05T05:48:01.629Z,17.5
2022-09-05T05:49:01.225Z,17.5
2022-09-05T05:50:01.789Z,17.5
2022-09-05T05:51:01.362Z,17.5
2022-09-05T05:52:03.172Z,17.6
2022-09-05T05:53:01.843Z,17.7
2022-09-05T05:54:01.181Z,17.8
2022-09-05T05:55:24.418Z,17.8
2022-09-05T05:56:01.289Z,18
2022-09-05T05:57:01.862Z,18
2022-09-05T05:58:01.416Z,18.1
2022-09-05T05:59:01.993Z,18.2
2022-09-05T06:00:01.570Z,18.2
2022-09-05T06:01:01.142Z,18.2
2022-09-05T06:02:01.898Z,18.2
2022-09-05T06:03:13.548Z,18.3
2022-09-05T06:04:01.926Z,18.3
2022-09-05T06:05:03.918Z,18.3
2022-09-05T06:06:01.035Z,18.4
2022-09-05T06:07:01.610Z,18.4
2022-09-05T06:08:50.441Z,18.5
2022-09-05T06:10:31.827Z,18.5
2022-09-05T06:12:48.749Z,18.6
2022-09-05T06:14:53.381Z,18.6
2022-09-05T06:14:53.510Z,18.8
2022-09-05T06:14:53.560Z,18.7
2022-09-05T06:14:54.606Z,18.6
2022-09-05T06:15:10.018Z,18.8
2022-09-05T06:16:01.590Z,18.9
2022-09-05T06:17:01.067Z,18.9
2022-09-05T06:18:01.640Z,18.9
2022-09-05T06:19:01.926Z,19
2022-09-05T06:21:01.989Z,19
2022-09-05T06:22:05.214Z,19
2022-09-05T06:22:08.207Z,19
2022-09-05T06:23:01.131Z,19.2
2022-09-05T06:24:01.723Z,19.4
2022-09-05T06:25:04.765Z,19.6
2022-09-05T06:26:01.834Z,19.6
2022-09-05T06:27:01.426Z,19.4
2022-09-05T06:28:18.299Z,19.4
2022-09-05T06:29:01.552Z,19.3
2022-09-05T06:30:01.127Z,19.3
2022-09-05T06:31:21.148Z,19.3
2022-09-05T06:32:01.294Z,19.3
2022-09-05T06:33:01.916Z,19.4
2022-09-05T06:34:01.541Z,19.5
2022-09-05T06:35:01.076Z,19.5
2022-09-05T06:36:04.317Z,19.5
2022-09-05T06:37:01.191Z,19.5
2022-09-05T06:38:01.765Z,19.6
2022-09-05T06:39:01.356Z,19.5
2022-09-05T06:40:02.108Z,19.6
2022-09-05T06:41:01.565Z,19.7
2022-09-05T06:42:01.138Z,19.7
2022-09-05T06:43:01.709Z,19.9
2022-09-05T06:44:01.306Z,19.9
2022-09-05T06:45:10.739Z,20
2022-09-05T06:46:01.448Z,20.2
2022-09-05T06:47:23.139Z,20.3
2022-09-05T06:48:01.591Z,20.3
2022-09-05T06:49:31.241Z,20.5
2022-09-05T06:50:04.357Z,20.5
2022-09-05T06:51:07.650Z,20.6
2022-09-05T06:52:04.193Z,20.7
2022-09-05T06:53:05.444Z,20.8
2022-09-05T06:54:01.812Z,20.8
2022-09-05T06:55:01.978Z,20.8
2022-09-05T06:56:01.562Z,20.8
2022-09-05T06:57:01.135Z,20.9
2022-09-05T06:58:01.711Z,20.8
2022-09-05T06:59:01.283Z,21
2022-09-05T07:00:01.881Z,21
2022-09-05T07:01:01.634Z,21.2
2022-09-05T07:02:01.774Z,21.2
2022-09-05T07:03:01.451Z,21.3
2022-09-05T07:04:33.252Z,21.3
2022-09-05T07:05:24.179Z,21.4
2022-09-05T07:06:01.697Z,21.4
2022-09-05T07:07:02.486Z,21.3
2022-09-05T07:08:04.748Z,21.2
2022-09-05T07:09:01.219Z,21
2022-09-05T07:10:08.996Z,21
2022-09-05T07:11:02.897Z,21
2022-09-05T07:12:01.049Z,21.1
2022-09-05T07:13:01.623Z,21.2
2022-09-05T07:14:01.198Z,21.3
2022-09-05T07:15:08.549Z,21.5
2022-09-05T07:16:01.377Z,21.6
2022-09-05T07:17:01.996Z,21.7
2022-09-05T07:18:11.624Z,21.7
2022-09-05T07:19:03.213Z,21.8
2022-09-05T07:20:01.674Z,21.9
2022-09-05T07:21:16.095Z,22
2022-09-05T07:22:01.795Z,22.1
2022-09-05T07:23:16.929Z,22.2
2022-09-05T07:24:07.352Z,22.2
2022-09-05T07:25:01.467Z,22.4
2022-09-05T07:26:01.940Z,22.4
2022-09-05T07:27:01.475Z,22.4
2022-09-05T07:28:27.183Z,22.5
2022-09-05T07:29:01.606Z,22.6
2022-09-05T07:30:02.118Z,22.5
2022-09-05T07:31:01.895Z,22.5
2022-09-05T07:32:01.558Z,22.6
2022-09-05T07:33:01.112Z,22.5
2022-09-05T07:34:01.666Z,22.5
2022-09-05T07:35:01.235Z,22.5
2022-09-05T07:36:01.809Z,22.7
2022-09-05T07:37:13.798Z,22.8
2022-09-05T07:38:01.941Z,22.8
2022-09-05T07:39:18.596Z,22.8
2022-09-05T07:40:05.327Z,22.8
2022-09-05T07:41:01.586Z,22.8
2022-09-05T07:42:01.159Z,23
2022-09-05T07:43:08.954Z,23
2022-09-05T07:44:01.284Z,23.1
2022-09-05T07:45:01.857Z,23.1
2022-09-05T07:46:01.530Z,23.2
2022-09-05T07:47:02.008Z,23.2
2022-09-05T07:48:01.581Z,23.2
2022-09-05T07:49:01.155Z,23.3
2022-09-05T07:50:07.822Z,23.3
2022-09-05T07:52:55.817Z,23.3
2022-09-05T07:55:07.972Z,23.3
2022-09-05T07:55:40.595Z,23.2
2022-09-05T07:56:57.152Z,23.2
2022-09-05T07:56:57.302Z,23.3
2022-09-05T07:57:11.111Z,23.2
2022-09-05T07:58:01.064Z,23.3
2022-09-05T07:59:01.637Z,23.5
2022-09-05T08:00:01.832Z,23.5
2022-09-05T08:01:01.461Z,23.5
2022-09-05T08:02:01.994Z,23.5
2022-09-05T08:03:01.567Z,23.5
2022-09-05T08:04:04.020Z,23.5
2022-09-05T08:05:01.732Z,23.7
2022-09-05T08:06:01.367Z,23.8
2022-09-05T08:07:46.198Z,23.8
2022-09-05T08:08:01.475Z,23.8
2022-09-05T08:09:20.713Z,23.8
2022-09-05T08:10:07.142Z,24
2022-09-05T08:11:23.060Z,24.1
2022-09-05T08:12:09.388Z,24.2
2022-09-05T08:13:23.086Z,24.2
2022-09-05T08:14:09.051Z,24.2
2022-09-05T08:15:01.308Z,24.3
2022-09-05T08:16:10.081Z,24.3
2022-09-05T08:17:01.423Z,24.3
2022-09-05T08:18:01.542Z,24.4
2022-09-05T08:19:01.158Z,24.5
2022-09-05T08:20:07.944Z,24.5
2022-09-05T08:21:01.238Z,24.6
2022-09-05T08:22:01.812Z,24.6
2022-09-05T08:23:01.387Z,24.6
2022-09-05T08:24:01.976Z,24.5
2022-09-05T08:25:01.536Z,24.6
2022-09-05T08:26:01.115Z,24.7
2022-09-05T08:27:01.686Z,24.8
2022-09-05T08:28:01.258Z,24.7
2022-09-05T08:29:01.832Z,24.7
2022-09-05T08:30:25.279Z,24.9
2022-09-05T08:31:01.984Z,24.7
2022-09-05T08:32:01.609Z,24.9
2022-09-05T08:33:10.169Z,24.9
2022-09-05T08:34:01.718Z,24.9
2022-09-05T08:35:01.309Z,24.9
2022-09-05T08:36:01.879Z,24.9
2022-09-05T08:37:01.476Z,25.2
2022-09-05T08:38:02.036Z,25.3
2022-09-05T08:39:01.623Z,25.4
2022-09-05T08:40:10.387Z,25.4
2022-09-05T08:41:01.732Z,25.3
2022-09-05T08:42:05.678Z,25.4
2022-09-05T08:44:21.004Z,25.6
2022-09-05T08:46:17.039Z,25.7
2022-09-05T08:46:38.783Z,25.6
2022-09-05T08:46:39.128Z,25.6
2022-09-05T08:47:02.243Z,25.6
2022-09-05T08:48:01.918Z,25.5
2022-09-05T08:49:03.471Z,25.5
2022-09-05T08:50:01.060Z,25.6
2022-09-05T08:51:01.704Z,25.6
2022-09-05T08:52:01.277Z,25.7
2022-09-05T08:53:01.849Z,25.7
2022-09-05T08:54:01.422Z,25.7
2022-09-05T08:55:07.014Z,25.5
2022-09-05T08:56:01.559Z,25.5
2022-09-05T08:57:01.133Z,25.7
2022-09-05T08:58:01.703Z,25.8
2022-09-05T08:59:28.597Z,25.8
2022-09-05T09:00:18.751Z,25.9
2022-09-05T09:01:03.715Z,26
2022-09-05T09:02:45.810Z,26.2
2022-09-05T09:03:04.207Z,26.2
2022-09-05T09:04:02.019Z,26.2
2022-09-05T09:05:02.910Z,26
2022-09-05T09:06:13.089Z,25.9
2022-09-05T09:07:32.359Z,25.8
2022-09-05T09:08:01.742Z,25.8
2022-09-05T09:09:05.222Z,25.8
2022-09-05T09:10:01.855Z,26
2022-09-05T09:11:01.426Z,26
2022-09-05T09:12:02.021Z,26.1
2022-09-05T09:13:01.599Z,26.2
2022-09-05T09:14:01.171Z,26.3
2022-09-05T09:15:01.707Z,26.4
2022-09-05T09:16:01.322Z,26.5
2022-09-05T09:17:01.878Z,26.5
2022-09-05T09:18:05.664Z,26.5
2022-09-05T09:19:02.053Z,26.6
2022-09-05T09:20:01.625Z,26.5
2022-09-05T09:21:01.196Z,26.4
2022-09-05T09:22:01.768Z,26.4
2022-09-05T09:23:01.342Z,26.4
2022-09-05T09:24:01.932Z,26.5
2022-09-05T09:25:15.625Z,26.5
2022-09-05T09:26:02.054Z,26.5
2022-09-05T09:27:01.643Z,26.6
2022-09-05T09:28:49.320Z,26.5
2022-09-05T09:29:01.755Z,26.6
2022-09-05T09:30:01.332Z,26.6
2022-09-05T09:31:01.931Z,26.8
2022-09-05T09:32:01.562Z,26.7
2022-09-05T09:33:01.127Z,26.7
2022-09-05T09:34:01.701Z,26.8
2022-09-05T09:35:01.279Z,27
2022-09-05T09:36:06.256Z,27
2022-09-05T09:37:01.370Z,26.9
2022-09-05T09:38:01.967Z,26.8
2022-09-05T09:39:08.179Z,26.8
2022-09-05T09:40:01.150Z,26.8
2022-09-05T09:41:02.337Z,26.6
2022-09-05T09:42:01.500Z,26.5
2022-09-05T09:43:05.211Z,26.6
2022-09-05T09:44:01.501Z,26.7
2022-09-05T09:45:01.084Z,26.7
2022-09-05T09:46:01.703Z,26.7
2022-09-05T09:47:01.427Z,26.7
2022-09-05T09:48:01.898Z,26.4
2022-09-05T09:49:01.470Z,26.5
2022-09-05T09:50:02.058Z,26.7
2022-09-05T09:51:01.767Z,26.8
2022-09-05T09:52:01.310Z,26.8
2022-09-05T09:53:01.879Z,27
2022-09-05T09:54:01.455Z,27
2022-09-05T09:55:02.034Z,27
2022-09-05T09:56:06.111Z,26.8
2022-09-05T09:57:01.163Z,26.8
2022-09-05T09:58:01.752Z,26.8
2022-09-05T09:59:01.333Z,26.9
2022-09-05T10:00:01.908Z,26.9
2022-09-05T10:01:01.484Z,26.8
2022-09-05T10:02:14.245Z,26.6
2022-09-05T10:03:53.651Z,26.7
2022-09-05T10:04:31.141Z,26.9
2022-09-05T10:10:07.583Z,27.2
2022-09-05T10:10:11.538Z,27
2022-09-05T10:10:36.648Z,27.1
2022-09-05T10:10:37.243Z,27.4
2022-09-05T10:10:41.094Z,27.4
2022-09-05T10:10:41.189Z,27.6
2022-09-05T10:11:33.959Z,27.4
2022-09-05T10:12:02.244Z,27.5
2022-09-05T10:13:08.501Z,27.5
2022-09-05T10:14:01.747Z,27.4
2022-09-05T10:15:08.057Z,27.4
2022-09-05T10:16:04.145Z,27.3
2022-09-05T10:17:01.109Z,27.3
2022-09-05T10:18:01.698Z,27.3
2022-09-05T10:19:01.275Z,27.3
2022-09-05T10:20:10.753Z,27.4
2022-09-05T10:21:15.868Z,27.4
2022-09-05T10:23:01.482Z,27.5
2022-09-05T10:24:02.056Z,27.5
2022-09-05T10:25:12.135Z,27.5
2022-09-05T10:26:01.986Z,27.6
2022-09-05T10:27:01.639Z,27.6
2022-09-05T10:28:01.239Z,27.7
2022-09-05T10:29:11.927Z,27.6
2022-09-05T10:30:01.941Z,27.6
2022-09-05T10:31:18.322Z,27.7
2022-09-05T10:32:45.346Z,27.7
2022-09-05T10:35:02.758Z,27.6
2022-09-05T10:35:05.581Z,27.7
2022-09-05T10:35:12.399Z,27.7
2022-09-05T10:36:01.514Z,27.5
2022-09-05T10:37:01.702Z,27.4
2022-09-05T10:38:04.430Z,27.4
2022-09-05T10:39:01.852Z,27.4
2022-09-05T10:40:01.491Z,27.4
2022-09-05T10:41:11.339Z,27.3
2022-09-05T10:42:03.510Z,27.4
2022-09-05T10:43:02.079Z,27.3
2022-09-05T10:44:01.674Z,27.3
2022-09-05T10:45:01.247Z,27.3
2022-09-05T10:46:01.865Z,27.4
2022-09-05T10:47:01.477Z,27.6
2022-09-05T10:48:08.466Z,27.8
2022-09-05T10:49:01.591Z,28.1
2022-09-05T10:50:01.164Z,28.1
2022-09-05T10:51:01.756Z,28.1
2022-09-05T10:52:04.129Z,27.9
2022-09-05T10:53:01.867Z,27.9
2022-09-05T10:54:01.444Z,27.9
2022-09-05T10:55:14.404Z,28
2022-09-05T10:56:01.574Z,28.2
2022-09-05T10:57:01.147Z,28.3
2022-09-05T10:58:01.720Z,28.5
2022-09-05T10:59:31.808Z,28.4
2022-09-05T11:01:23.493Z,28.4
2022-09-05T11:01:34.838Z,28.4
2022-09-05T11:02:25.423Z,28.2
2022-09-05T11:03:01.568Z,28
2022-09-05T11:04:01.259Z,27.9
2022-09-05T11:05:01.796Z,27.7
2022-09-05T11:06:05.711Z,27.7
2022-09-05T11:07:01.972Z,27.5
2022-09-05T11:08:01.544Z,27.5
2022-09-05T11:09:01.117Z,27.3
2022-09-05T11:10:01.688Z,27.3
2022-09-05T11:11:01.259Z,27.4
2022-09-05T11:12:01.846Z,27.4
2022-09-05T11:13:01.420Z,27.7
2022-09-05T11:14:02.008Z,27.8
2022-09-05T11:15:01.582Z,28.1
2022-09-05T11:16:04.093Z,28.2
2022-09-05T11:17:01.719Z,28.3
2022-09-05T11:18:01.307Z,28.4
2022-09-05T11:19:01.878Z,28.6
2022-09-05T11:20:01.451Z,28.5
2022-09-05T11:21:02.024Z,28.8
2022-09-05T11:22:04.365Z,28.8
2022-09-05T11:23:01.147Z,28.7
2022-09-05T11:24:01.733Z,29
2022-09-05T11:25:01.303Z,29.1
2022-09-05T11:26:01.873Z,28.8
2022-09-05T11:27:23.267Z,29
2022-09-05T11:28:02.000Z,29.1
2022-09-05T11:29:01.574Z,29.1
2022-09-05T11:30:01.147Z,29.1
2022-09-05T11:31:01.747Z,29.5
2022-09-05T11:32:33.128Z,29.6
2022-09-05T11:35:51.421Z,29.9
2022-09-05T11:36:23.618Z,29.5
2022-09-05T11:36:57.909Z,29.7
2022-09-05T11:38:24.037Z,29.9
2022-09-05T11:39:49.851Z,29.5
2022-09-05T11:40:01.235Z,29.5
2022-09-05T11:40:01.739Z,29.5
2022-09-05T11:40:26.954Z,29.4
2022-09-05T11:41:09.945Z,29.3
2022-09-05T11:42:01.892Z,29.7
2022-09-05T11:43:02.072Z,29.8
2022-09-05T11:44:02.374Z,29.9
2022-09-05T11:45:01.187Z,29.9
2022-09-05T11:46:01.825Z,29.7
2022-09-05T11:47:14.078Z,29.8
2022-09-05T11:48:01.966Z,29.8
2022-09-05T11:49:01.539Z,29.7
2022-09-05T11:50:02.113Z,29.6
2022-09-05T11:51:01.664Z,29.5
2022-09-05T11:52:01.259Z,29.5
2022-09-05T11:53:01.824Z,29.2
2022-09-05T11:54:01.397Z,29.4
2022-09-05T11:55:01.972Z,29.5
2022-09-05T11:56:01.547Z,29.5
2022-09-05T11:57:06.478Z,29.5
2022-09-05T11:58:01.676Z,29.5
2022-09-05T11:59:04.768Z,29.6
2022-09-05T12:00:10.825Z,29.8
2022-09-05T12:01:42.323Z,29.7
2022-09-05T12:02:08.287Z,29.5
2022-09-05T12:03:01.382Z,29.2
2022-09-05T12:04:03.638Z,29
2022-09-05T12:05:48.231Z,29
2022-09-05T12:06:01.393Z,29
2022-09-05T12:07:02.048Z,28.9
2022-09-05T12:08:01.625Z,28.8
2022-09-05T12:09:01.156Z,28.9
2022-09-05T12:10:01.731Z,29.1
2022-09-05T12:11:01.491Z,29.2
2022-09-05T12:12:01.506Z,29.2
2022-09-05T12:13:02.092Z,29.1
2022-09-05T12:14:13.908Z,28.8
2022-09-05T12:15:01.199Z,28.9
2022-09-05T12:16:07.966Z,28.9
2022-09-05T12:17:01.286Z,29.1
2022-09-05T12:18:01.857Z,29.2
2022-09-05T12:19:02.879Z,29.5
2022-09-05T12:20:01.966Z,29.4
2022-09-05T12:21:01.541Z,29.3
2022-09-05T12:22:08.750Z,29.3
2022-09-05T12:23:01.689Z,29.5
2022-09-05T12:24:13.241Z,29.5
2022-09-05T12:25:17.358Z,29.4
2022-09-05T12:27:37.926Z,29.5
2022-09-05T12:27:37.955Z,29.5
2022-09-05T12:28:39.160Z,29.3
2022-09-05T12:29:28.349Z,29.2
2022-09-05T12:30:01.815Z,29.3
2022-09-05T12:31:12.038Z,29.1
2022-09-05T12:33:04.948Z,28.9
2022-09-05T12:35:44.127Z,28.8
2022-09-05T12:36:09.278Z,28.5
2022-09-05T12:36:13.773Z,28.5
2022-09-05T12:38:58.968Z,28.4
2022-09-05T12:39:16.223Z,28.3
2022-09-05T12:40:27.707Z,28.4
2022-09-05T12:40:58.657Z,28.5
2022-09-05T12:41:40.203Z,28.7
2022-09-05T12:41:48.240Z,28.7
2022-09-05T12:42:11.204Z,28.7
2022-09-05T12:43:44.940Z,28.8
2022-09-05T12:44:40.904Z,29
2022-09-05T12:45:01.341Z,28.9
2022-09-05T12:46:01.265Z,29
2022-09-05T12:47:16.461Z,29
2022-09-05T12:48:01.333Z,29
2022-09-05T12:49:04.709Z,29
2022-09-05T12:50:02.371Z,29
2022-09-05T12:51:01.221Z,28.8
2022-09-05T12:52:01.336Z,28.8
2022-09-05T12:53:00.909Z,28.7
2022-09-05T12:54:01.481Z,28.5
2022-09-05T12:55:01.071Z,28.4
2022-09-05T12:56:51.360Z,28.4
2022-09-05T12:58:50.951Z,28.4
2022-09-05T13:00:24.270Z,28.3
2022-09-05T13:02:29.437Z,28.4
2022-09-05T13:02:59.584Z,28.3
2022-09-05T13:02:59.873Z,28.2
2022-09-05T13:03:10.316Z,28.3
2022-09-05T13:03:25.129Z,28.3
2022-09-05T13:04:17.175Z,28.4
2022-09-05T13:05:02.593Z,28.5
2022-09-05T13:06:01.530Z,28.6
2022-09-05T13:07:01.200Z,28.4
2022-09-05T13:08:00.775Z,28.3
2022-09-05T13:09:01.352Z,28.3
2022-09-05T13:11:10.084Z,28.2
2022-09-05T13:13:46.991Z,28.1
2022-09-05T13:14:08.946Z,28.1
2022-09-05T13:14:51.344Z,28.1
2022-09-05T13:14:51.961Z,28
2022-09-05T13:15:11.339Z,28.1
2022-09-05T13:16:01.207Z,28.2
2022-09-05T13:17:00.813Z,28.2
2022-09-05T13:18:01.402Z,28.3
2022-09-05T13:19:00.975Z,28.3
2022-09-05T13:20:01.568Z,28.2
2022-09-05T13:21:01.141Z,28.1
2022-09-05T13:22:00.712Z,28.2
2022-09-05T13:23:01.301Z,28.1
2022-09-05T13:24:00.892Z,28.2
2022-09-05T13:25:01.550Z,28.1